createdAt,value
2023-03-16T00:00:56.584Z,9.90
2023-03-16T00:03:31.620Z,10.00
2023-03-16T00:06:03.516Z,10.10
2023-03-16T00:08:37.330Z,10.10
2023-03-16T00:11:08.519Z,10.30
2023-03-16T00:13:40.232Z,10.20
2023-03-16T00:16:11.266Z,10.20
2023-03-16T00:18:46.006Z,10.00
2023-03-16T00:21:17.727Z,10.10
2023-03-16T00:23:50.736Z,10.10
2023-03-16T00:26:21.903Z,10.00
2023-03-16T00:28:55.097Z,10.00
2023-03-16T00:31:26.516Z,9.90
2023-03-16T00:33:57.290Z,9.80
2023-03-16T00:36:28.010Z,9.70
2023-03-16T00:39:00.632Z,9.70
2023-03-16T00:41:31.370Z,9.60
2023-03-16T00:44:02.923Z,9.60
2023-03-16T00:46:38.525Z,9.50
2023-03-16T00:49:10.296Z,9.40
2023-03-16T00:51:41.015Z,9.40
2023-03-16T00:54:14.032Z,9.40
2023-03-16T00:56:44.752Z,9.40
2023-03-16T00:59:31.068Z,9.40
2023-03-16T01:02:18.534Z,9.30
2023-03-16T01:04:49.376Z,9.10
2023-03-16T01:07:20.223Z,9.10
2023-03-16T01:09:53.218Z,9.00
2023-03-16T01:12:24.348Z,9.00
2023-03-16T01:14:56.464Z,9.00
2023-03-16T01:17:27.588Z,8.90
2023-03-16T01:19:58.857Z,8.90
2023-03-16T01:22:29.524Z,8.90
2023-03-16T01:25:02.034Z,8.90
2023-03-16T01:27:33.750Z,8.80
2023-03-16T01:30:04.873Z,8.70
2023-03-16T01:32:36.500Z,8.70
2023-03-16T01:35:08.171Z,8.60
2023-03-16T01:37:38.902Z,8.60
2023-03-16T01:40:14.281Z,8.60
2023-03-16T01:42:52.986Z,8.60
2023-03-16T01:46:00.185Z,8.40
2023-03-16T01:48:38.251Z,8.30
2023-03-16T01:51:14.195Z,8.30
2023-03-16T01:53:48.238Z,8.20
2023-03-16T01:56:26.050Z,8.10
2023-03-16T01:59:00.437Z,8.00
2023-03-16T02:01:32.520Z,7.80
2023-03-16T02:04:15.388Z,7.70
2023-03-16T02:06:49.093Z,7.60
2023-03-16T02:09:21.539Z,7.50
2023-03-16T02:11:56.779Z,7.40
2023-03-16T02:14:28.206Z,7.30
2023-03-16T02:17:00.940Z,7.20
2023-03-16T02:19:43.793Z,7.10
2023-03-16T02:22:15.339Z,7.00
2023-03-16T02:24:46.820Z,6.80
2023-03-16T02:27:27.635Z,6.70
2023-03-16T02:30:12.706Z,6.70
2023-03-16T02:32:45.303Z,6.50
2023-03-16T02:35:17.600Z,6.40
2023-03-16T02:37:49.289Z,6.30
2023-03-16T02:40:29.883Z,6.20
2023-03-16T02:43:06.687Z,6.10
2023-03-16T02:45:43.600Z,6.10
2023-03-16T02:48:20.038Z,6.00
2023-03-16T02:50:54.023Z,5.90
2023-03-16T02:53:26.677Z,5.90
2023-03-16T02:55:57.701Z,5.90
2023-03-16T02:58:29.194Z,5.80
2023-03-16T03:01:02.903Z,5.70
2023-03-16T03:03:35.857Z,5.70
2023-03-16T03:06:08.403Z,5.70
2023-03-16T03:08:41.001Z,5.60
2023-03-16T03:11:14.219Z,5.60
2023-03-16T03:13:46.834Z,5.50
2023-03-16T03:16:21.702Z,5.50
2023-03-16T03:18:53.776Z,5.40
2023-03-16T03:21:26.362Z,5.40
2023-03-16T03:23:58.007Z,5.40
2023-03-16T03:26:30.485Z,5.40
2023-03-16T03:29:01.918Z,5.30
2023-03-16T03:31:35.325Z,5.30
2023-03-16T03:34:08.045Z,5.40
2023-03-16T03:36:39.410Z,5.40
2023-03-16T03:39:11.905Z,5.40
2023-03-16T03:41:43.016Z,5.40
2023-03-16T03:44:14.779Z,5.50
2023-03-16T03:46:49.109Z,5.50
2023-03-16T03:49:20.736Z,5.50
2023-03-16T03:51:52.378Z,5.60
2023-03-16T03:54:23.885Z,5.60
2023-03-16T03:56:55.866Z,5.60
2023-03-16T03:59:28.147Z,5.60
2023-03-16T04:02:03.690Z,5.70
2023-03-16T04:04:35.528Z,5.70
2023-03-16T04:07:08.515Z,5.80
2023-03-16T04:09:40.224Z,5.80
2023-03-16T04:12:12.593Z,5.80
2023-03-16T04:14:44.227Z,5.80
2023-03-16T04:17:18.404Z,5.80
2023-03-16T04:19:50.244Z,5.90
2023-03-16T04:22:24.276Z,5.90
2023-03-16T04:24:56.249Z,5.90
2023-03-16T04:27:27.650Z,5.90
2023-03-16T04:30:01.192Z,5.90
2023-03-16T04:32:35.098Z,5.80
2023-03-16T04:35:07.218Z,5.90
2023-03-16T04:37:38.990Z,5.90
2023-03-16T04:40:19.169Z,5.80
2023-03-16T04:42:51.046Z,5.80
2023-03-16T04:45:22.511Z,5.80
2023-03-16T04:47:55.995Z,5.70
2023-03-16T04:50:27.531Z,5.70
2023-03-16T04:52:59.700Z,5.60
2023-03-16T04:55:31.261Z,5.60
2023-03-16T04:58:02.332Z,5.60
2023-03-16T05:00:34.629Z,5.60
2023-03-16T05:03:09.405Z,5.50
2023-03-16T05:05:41.420Z,5.40
2023-03-16T05:08:13.425Z,5.40
2023-03-16T05:10:45.994Z,5.40
2023-03-16T05:13:17.254Z,5.30
2023-03-16T05:15:48.998Z,5.20
2023-03-16T05:18:23.145Z,5.20
2023-03-16T05:20:55.107Z,5.20
2023-03-16T05:23:27.688Z,5.10
2023-03-16T05:26:03.066Z,5.10
2023-03-16T05:28:35.125Z,5.00
2023-03-16T05:31:07.187Z,4.90
2023-03-16T05:33:47.935Z,4.90
2023-03-16T05:36:19.888Z,4.80
2023-03-16T05:38:52.300Z,4.80
2023-03-16T05:41:24.892Z,4.70
2023-03-16T05:43:56.368Z,4.60
2023-03-16T05:46:28.056Z,4.50
2023-03-16T05:49:01.639Z,4.40
2023-03-16T05:51:34.049Z,4.40
2023-03-16T05:54:05.882Z,4.30
2023-03-16T05:56:37.724Z,4.30
2023-03-16T05:59:09.766Z,4.30
2023-03-16T06:01:41.440Z,4.30
2023-03-16T06:04:15.358Z,4.20
2023-03-16T06:06:48.140Z,4.20
2023-03-16T06:09:19.580Z,4.10
2023-03-16T06:11:50.979Z,4.00
2023-03-16T06:14:22.333Z,4.00
2023-03-16T06:16:54.856Z,3.90
2023-03-16T06:19:28.802Z,3.90
2023-03-16T06:22:00.143Z,3.90
2023-03-16T06:24:31.844Z,3.80
2023-03-16T06:27:03.349Z,3.80
2023-03-16T06:29:34.529Z,3.80
2023-03-16T06:32:05.909Z,3.80
2023-03-16T06:34:40.247Z,3.80
2023-03-16T06:37:11.933Z,3.70
2023-03-16T06:39:45.643Z,3.70
2023-03-16T06:42:17.541Z,3.70
2023-03-16T06:44:49.177Z,3.60
2023-03-16T06:47:20.965Z,3.60
2023-03-16T06:49:56.245Z,3.50
2023-03-16T06:52:27.750Z,3.50
2023-03-16T06:55:00.050Z,3.50
2023-03-16T06:57:31.535Z,3.40
2023-03-16T07:00:04.428Z,3.30
2023-03-16T07:02:37.449Z,3.30
2023-03-16T07:05:14.135Z,3.30
2023-03-16T07:07:47.500Z,3.20
2023-03-16T07:10:20.888Z,3.20
2023-03-16T07:12:52.635Z,3.20
2023-03-16T07:15:26.569Z,3.10
2023-03-16T07:17:58.069Z,3.10
2023-03-16T07:20:32.356Z,3.00
2023-03-16T07:23:04.324Z,3.00
2023-03-16T07:25:36.165Z,3.00
2023-03-16T07:28:08.039Z,2.90
2023-03-16T07:30:41.318Z,2.90
2023-03-16T07:33:14.063Z,2.90
2023-03-16T07:35:47.496Z,2.80
2023-03-16T07:38:19.207Z,2.80
2023-03-16T07:40:50.651Z,2.80
2023-03-16T07:43:22.192Z,2.80
2023-03-16T07:45:54.709Z,2.70
2023-03-16T07:48:26.234Z,2.70
2023-03-16T07:51:00.663Z,2.60
2023-03-16T07:53:32.134Z,2.70
2023-03-16T07:56:03.990Z,2.70
2023-03-16T07:58:36.380Z,2.60
2023-03-16T08:01:07.716Z,2.60
2023-03-16T08:03:39.807Z,2.50
2023-03-16T08:06:13.695Z,2.40
2023-03-16T08:08:46.354Z,2.40
2023-03-16T08:11:24.616Z,2.40
2023-03-16T08:13:57.648Z,2.40
2023-03-16T08:16:30.257Z,2.40
2023-03-16T08:19:02.351Z,2.30
2023-03-16T08:21:53.082Z,2.30
2023-03-16T08:24:28.591Z,2.30
2023-03-16T08:27:00.975Z,2.20
2023-03-16T08:29:32.388Z,2.20
2023-03-16T08:32:04.174Z,2.10
2023-03-16T08:34:37.434Z,2.10
2023-03-16T08:37:11.446Z,2.10
2023-03-16T08:39:45.138Z,2.10
2023-03-16T08:42:17.794Z,2.10
2023-03-16T08:44:49.306Z,2.00
2023-03-16T08:47:20.836Z,2.00
2023-03-16T08:49:53.348Z,2.00
2023-03-16T08:52:27.020Z,1.90
2023-03-16T08:55:03.355Z,1.90
2023-03-16T08:57:36.776Z,1.90
2023-03-16T09:00:16.277Z,1.90
2023-03-16T09:02:48.991Z,1.90
2023-03-16T09:05:21.284Z,1.80
2023-03-16T09:07:55.133Z,1.90
2023-03-16T09:10:28.186Z,1.80
2023-03-16T09:13:00.208Z,1.80
2023-03-16T09:15:33.050Z,1.80
2023-03-16T09:18:05.191Z,1.70
2023-03-16T09:20:37.042Z,1.70
2023-03-16T09:23:11.290Z,1.60
2023-03-16T09:25:43.018Z,1.70
2023-03-16T09:28:14.067Z,1.60
2023-03-16T09:30:45.500Z,1.60
2023-03-16T09:33:16.922Z,1.60
2023-03-16T09:35:49.064Z,1.60
2023-03-16T09:38:23.164Z,1.60
2023-03-16T09:41:01.738Z,1.60
2023-03-16T09:43:58.737Z,1.50
2023-03-16T09:46:34.997Z,1.50
2023-03-16T09:49:09.363Z,1.50
2023-03-16T09:51:46.129Z,1.40
2023-03-16T09:54:27.521Z,1.40
2023-03-16T09:57:00.481Z,1.40
2023-03-16T09:59:32.014Z,1.40
2023-03-16T10:02:29.552Z,1.40
2023-03-16T10:05:11.036Z,1.30
2023-03-16T10:07:54.341Z,1.30
2023-03-16T10:10:39.401Z,1.20
2023-03-16T10:13:20.752Z,1.20
2023-03-16T10:15:55.036Z,1.20
2023-03-16T10:18:31.868Z,1.20
2023-03-16T10:21:05.507Z,1.10
2023-03-16T10:23:40.931Z,1.00
2023-03-16T10:26:20.279Z,1.00
2023-03-16T10:28:52.898Z,1.00
2023-03-16T10:31:27.350Z,0.90
2023-03-16T10:34:06.611Z,0.90
2023-03-16T10:36:40.149Z,0.90
2023-03-16T10:39:14.353Z,0.80
2023-03-16T10:41:51.467Z,0.80
2023-03-16T10:44:27.784Z,0.80
2023-03-16T10:47:05.808Z,0.80
2023-03-16T10:49:43.122Z,0.70
2023-03-16T10:52:22.370Z,0.70
2023-03-16T10:54:56.796Z,0.70
2023-03-16T10:57:36.226Z,0.60
2023-03-16T11:00:22.233Z,0.60
2023-03-16T11:02:55.372Z,0.60
2023-03-16T11:05:33.381Z,0.60
2023-03-16T11:08:12.361Z,0.60
2023-03-16T11:10:55.215Z,0.60
2023-03-16T11:13:35.994Z,0.60
2023-03-16T11:16:17.898Z,0.70
2023-03-16T11:18:52.056Z,0.70
2023-03-16T11:21:31.192Z,0.70
2023-03-16T11:24:05.385Z,0.70
2023-03-16T11:26:41.076Z,0.70
2023-03-16T11:29:24.165Z,0.60
2023-03-16T11:31:59.448Z,0.60
2023-03-16T11:34:33.437Z,0.60
2023-03-16T11:37:14.637Z,0.60
2023-03-16T11:39:54.037Z,0.60
2023-03-16T11:42:34.377Z,0.60
2023-03-16T11:45:20.058Z,0.60
2023-03-16T11:48:30.399Z,0.50
2023-03-16T11:51:11.099Z,0.50
2023-03-16T11:53:54.914Z,0.50
2023-03-16T11:56:36.687Z,0.50
2023-03-16T11:59:48.941Z,0.60
2023-03-16T12:02:53.004Z,0.60
2023-03-16T12:05:52.047Z,0.60
2023-03-16T12:08:41.161Z,0.60
2023-03-16T12:11:16.621Z,0.60
2023-03-16T12:14:06.031Z,0.60
2023-03-16T12:16:49.555Z,0.60
2023-03-16T12:19:26.616Z,0.60
2023-03-16T12:22:07.123Z,0.50
2023-03-16T12:24:43.639Z,0.60
2023-03-16T12:27:19.872Z,0.50
2023-03-16T12:30:04.773Z,0.50
2023-03-16T12:32:45.732Z,0.50
2023-03-16T12:35:33.243Z,0.40
2023-03-16T12:38:27.238Z,0.40
2023-03-16T12:41:08.604Z,0.30
2023-03-16T12:43:53.373Z,0.30
2023-03-16T12:46:32.671Z,0.30
2023-03-16T12:49:06.203Z,0.30
2023-03-16T12:51:39.712Z,0.20
2023-03-16T12:54:23.792Z,0.20
2023-03-16T12:56:57.822Z,0.10
2023-03-16T12:59:39.344Z,0.10
2023-03-16T13:02:19.074Z,0.10
2023-03-16T13:04:52.622Z,0.10
2023-03-16T13:07:27.555Z,0.10
2023-03-16T13:10:05.534Z,0.10
2023-03-16T13:12:39.368Z,0.00
2023-03-16T13:15:30.820Z,0.10
2023-03-16T13:18:24.953Z,0.00
2023-03-16T13:21:01.918Z,0.00
2023-03-16T13:23:55.485Z,0.00
2023-03-16T13:26:49.052Z,0.00
2023-03-16T13:29:28.801Z,0.00
2023-03-16T13:32:02.084Z,0.00
2023-03-16T13:34:35.121Z,-0.10
2023-03-16T13:39:56.981Z,0.00
2023-03-16T13:42:34.778Z,-0.10
2023-03-16T13:45:16.916Z,0.00
2023-03-16T13:47:51.111Z,0.00
2023-03-16T13:50:26.016Z,0.00
2023-03-16T13:53:04.383Z,-0.10
2023-03-16T13:55:39.052Z,-0.10
2023-03-16T13:58:27.068Z,-0.20
2023-03-16T14:01:04.112Z,-0.30
2023-03-16T14:03:37.084Z,-0.30
2023-03-16T14:06:11.934Z,-0.20
2023-03-16T14:08:54.991Z,-0.30
2023-03-16T14:11:26.405Z,-0.30
2023-03-16T14:14:02.042Z,-0.30
2023-03-16T14:16:35.101Z,-0.30
2023-03-16T14:19:07.704Z,-0.30
2023-03-16T14:21:39.571Z,-0.40
2023-03-16T14:24:23.296Z,-0.40
2023-03-16T14:26:54.789Z,-0.40
2023-03-16T14:29:32.048Z,-0.40
2023-03-16T14:32:04.572Z,-0.40
2023-03-16T14:34:40.491Z,-0.30
2023-03-16T14:37:13.360Z,-0.40
2023-03-16T14:39:45.554Z,-0.30
2023-03-16T14:42:23.336Z,-0.30
2023-03-16T14:44:58.063Z,-0.40
2023-03-16T14:47:32.204Z,-0.30
2023-03-16T14:50:10.293Z,-0.30
2023-03-16T14:52:43.202Z,-0.20
2023-03-16T14:55:17.692Z,-0.30
2023-03-16T14:57:50.443Z,-0.30
2023-03-16T15:00:26.544Z,-0.30
2023-03-16T15:03:03.698Z,-0.20
2023-03-16T15:05:41.056Z,-0.20
2023-03-16T15:08:19.485Z,-0.20
2023-03-16T15:10:51.810Z,-0.10
2023-03-16T15:13:35.990Z,0.00
2023-03-16T15:16:10.003Z,0.00
2023-03-16T15:18:44.444Z,0.10
2023-03-16T15:21:19.033Z,0.20
2023-03-16T15:23:51.453Z,0.20
2023-03-16T15:26:29.593Z,0.30
2023-03-16T15:29:02.247Z,0.40
2023-03-16T15:31:36.017Z,0.50
2023-03-16T15:34:07.525Z,0.60
2023-03-16T15:36:38.965Z,0.70
2023-03-16T15:39:16.016Z,0.80
2023-03-16T15:41:48.188Z,0.90
2023-03-16T15:44:19.680Z,1.00
2023-03-16T15:46:55.300Z,1.10
2023-03-16T15:49:28.485Z,1.10
2023-03-16T15:52:01.920Z,1.20
2023-03-16T15:54:34.597Z,1.20
2023-03-16T15:57:06.961Z,1.30
2023-03-16T15:59:39.744Z,1.30
2023-03-16T16:02:28.921Z,1.40
2023-03-16T16:05:00.537Z,1.40
2023-03-16T16:07:31.970Z,1.50
2023-03-16T16:10:03.122Z,1.50
2023-03-16T16:12:34.533Z,1.60
2023-03-16T16:15:05.733Z,1.60
2023-03-16T16:17:53.448Z,1.60
2023-03-16T16:20:33.382Z,1.70
2023-03-16T16:23:04.393Z,1.80
2023-03-16T16:25:41.857Z,1.90
2023-03-16T16:28:20.773Z,2.00
2023-03-16T16:30:52.380Z,2.00
2023-03-16T16:33:31.218Z,2.10
2023-03-16T16:36:05.962Z,2.20
2023-03-16T16:38:37.961Z,2.30
2023-03-16T16:41:14.071Z,2.30
2023-03-16T16:43:48.167Z,2.40
2023-03-16T16:46:22.693Z,2.50
2023-03-16T16:48:58.285Z,2.60
2023-03-16T16:51:31.956Z,2.70
2023-03-16T16:54:05.843Z,2.80
2023-03-16T16:56:40.588Z,2.90
2023-03-16T16:59:19.812Z,2.90
2023-03-16T17:01:53.406Z,2.90
2023-03-16T17:04:29.170Z,3.00
2023-03-16T17:07:04.595Z,3.10
2023-03-16T17:09:36.003Z,3.20
2023-03-16T17:12:07.971Z,3.30
2023-03-16T17:14:40.455Z,3.40
2023-03-16T17:17:18.474Z,3.40
2023-03-16T17:19:51.847Z,3.40
2023-03-16T17:22:29.337Z,3.50
2023-03-16T17:25:00.750Z,3.60
2023-03-16T17:27:35.044Z,3.70
2023-03-16T17:30:07.147Z,3.80
2023-03-16T17:32:39.819Z,3.90
2023-03-16T17:35:20.318Z,4.00
2023-03-16T17:37:52.875Z,4.10
2023-03-16T17:40:26.497Z,4.20
2023-03-16T17:43:00.112Z,4.40
2023-03-16T17:45:33.049Z,4.50
2023-03-16T17:48:06.776Z,4.60
2023-03-16T17:50:41.456Z,4.70
2023-03-16T17:53:12.471Z,4.80
2023-03-16T17:55:45.071Z,4.90
2023-03-16T17:58:29.694Z,5.00
2023-03-16T18:01:02.441Z,5.10
2023-03-16T18:03:34.598Z,5.20
2023-03-16T18:06:10.935Z,5.30
2023-03-16T18:08:42.301Z,5.30
2023-03-16T18:11:20.270Z,5.50
2023-03-16T18:13:52.609Z,5.60
2023-03-16T18:16:29.652Z,5.80
2023-03-16T18:19:03.658Z,5.90
2023-03-16T18:21:38.578Z,6.00
2023-03-16T18:24:13.497Z,6.10
2023-03-16T18:26:47.382Z,6.20
2023-03-16T18:29:19.836Z,6.30
2023-03-16T18:31:53.309Z,6.50
2023-03-16T18:34:27.292Z,6.60
2023-03-16T18:37:07.772Z,6.70
2023-03-16T18:39:39.650Z,6.80
2023-03-16T18:42:14.455Z,6.90
2023-03-16T18:44:46.353Z,7.10
2023-03-16T18:47:23.332Z,7.10
2023-03-16T18:49:55.285Z,7.20
2023-03-16T18:52:32.450Z,7.30
2023-03-16T18:55:04.647Z,7.40
2023-03-16T18:57:40.349Z,7.60
2023-03-16T19:00:18.219Z,7.70
2023-03-16T19:02:59.060Z,7.80
2023-03-16T19:05:36.758Z,7.90
2023-03-16T19:08:14.445Z,8.00
2023-03-16T19:10:51.793Z,8.20
2023-03-16T19:13:31.470Z,8.20
2023-03-16T19:16:04.473Z,8.20
2023-03-16T19:18:43.095Z,8.40
2023-03-16T19:21:19.292Z,8.50
2023-03-16T19:23:58.616Z,8.60
2023-03-16T19:26:34.326Z,8.70
2023-03-16T19:29:07.418Z,8.70
2023-03-16T19:31:38.979Z,8.80
2023-03-16T19:34:20.904Z,9.00
2023-03-16T19:36:54.071Z,9.10
2023-03-16T19:39:28.504Z,9.20
2023-03-16T19:42:01.291Z,9.20
2023-03-16T19:44:32.780Z,9.30
2023-03-16T19:47:05.686Z,9.40
2023-03-16T19:49:37.121Z,9.40
2023-03-16T19:52:14.262Z,9.40
2023-03-16T19:54:48.122Z,9.60
2023-03-16T19:57:22.087Z,9.80
2023-03-16T19:59:59.215Z,9.80
2023-03-16T20:02:32.497Z,9.90
2023-03-16T20:05:03.845Z,10.00
2023-03-16T20:07:39.321Z,10.00
2023-03-16T20:10:19.661Z,10.00
2023-03-16T20:12:53.882Z,10.20
2023-03-16T20:15:34.257Z,10.30
2023-03-16T20:18:05.652Z,10.40
2023-03-16T20:20:38.605Z,10.60
2023-03-16T20:23:22.524Z,10.70
2023-03-16T20:26:02.631Z,10.70
2023-03-16T20:28:39.087Z,10.80
2023-03-16T20:31:18.890Z,10.90
2023-03-16T20:33:51.497Z,11.00
2023-03-16T20:36:24.252Z,11.00
2023-03-16T20:38:56.300Z,11.10
2023-03-16T20:41:34.723Z,11.10
2023-03-16T20:44:06.920Z,11.10
2023-03-16T20:46:42.151Z,11.20
2023-03-16T20:49:35.062Z,11.30
2023-03-16T20:52:10.283Z,11.40
2023-03-16T20:54:41.200Z,11.50
2023-03-16T20:57:19.993Z,11.70
2023-03-16T20:59:52.758Z,11.90
2023-03-16T21:02:30.011Z,12.10
2023-03-16T21:05:02.305Z,12.10
2023-03-16T21:07:34.423Z,12.20
2023-03-16T21:10:06.350Z,12.30
2023-03-16T21:12:43.276Z,12.40
2023-03-16T21:15:23.570Z,12.40
2023-03-16T21:18:02.071Z,12.40
2023-03-16T21:20:34.658Z,12.60
2023-03-16T21:23:07.474Z,12.70
2023-03-16T21:25:48.196Z,12.80
2023-03-16T21:28:22.961Z,12.90
2023-03-16T21:30:56.329Z,13.10
2023-03-16T21:33:33.424Z,13.00
2023-03-16T21:36:06.499Z,13.10
2023-03-16T21:38:37.958Z,13.20
2023-03-16T22:10:49.992Z,14.10
2023-03-16T22:13:21.532Z,14.20
2023-03-16T22:15:54.006Z,14.10
2023-03-16T22:18:31.648Z,14.20
2023-03-16T22:21:04.762Z,14.20
2023-03-16T22:23:37.476Z,14.30
2023-03-16T22:26:15.084Z,14.40
2023-03-16T22:28:47.252Z,14.30
2023-03-16T22:31:22.560Z,14.40
2023-03-16T22:33:53.835Z,14.40
2023-03-16T22:36:25.929Z,14.50
2023-03-16T22:39:00.451Z,14.50
2023-03-16T22:41:33.781Z,14.70
2023-03-16T22:44:05.204Z,14.80
2023-03-16T22:46:36.631Z,14.80
2023-03-16T22:49:21.492Z,14.80
2023-03-16T22:51:53.540Z,14.90
2023-03-16T22:54:29.446Z,15.00
2023-03-16T22:57:02.758Z,15.00
2023-03-16T22:59:33.915Z,15.10
2023-03-16T23:02:04.645Z,15.10
2023-03-16T23:04:35.394Z,15.10
2023-03-16T23:07:06.348Z,15.00
2023-03-16T23:09:37.301Z,14.90
2023-03-16T23:12:16.435Z,15.00
2023-03-16T23:14:47.279Z,14.90
2023-03-16T23:17:20.521Z,14.90
2023-03-16T23:19:51.301Z,15.10
2023-03-16T23:22:21.952Z,15.10
2023-03-16T23:24:52.623Z,15.00
2023-03-16T23:27:26.083Z,15.00
2023-03-16T23:29:56.801Z,14.80
2023-03-16T23:32:28.042Z,14.80
2023-03-16T23:34:59.792Z,14.60
2023-03-16T23:37:30.763Z,14.70
2023-03-16T23:40:01.502Z,14.60
2023-03-16T23:42:34.300Z,14.60
2023-03-16T23:45:11.546Z,14.60
2023-03-16T23:47:42.305Z,14.50
2023-03-16T23:50:16.245Z,14.40
2023-03-16T23:52:47.298Z,14.40
2023-03-16T23:55:18.703Z,14.50
2023-03-16T23:57:51.256Z,14.60
